Time;durP1;ratioP1;P1;durP2;ratioP2;P2;SDS_P1;SDS_P2;PMS_P1;PMS_P2;Temp;Humidity;BMP_temperature;BMP_pressure;BME280_temperature;BME280_humidity;BME280_pressure;Samples;Min_cycle;Max_cycle;Signal;HPM_P1;HPM_P2
2023/06/30 00:02:22;;;;;;;8.55;3.40;;;;;;;;;;5026843;28;20040;-78
2023/06/30 00:04:48;;;;;;;5.25;3.03;;;;;;;;;;5012523;28;20191;-79
2023/06/30 00:07:14;;;;;;;5.47;2.83;;;;;;;;;;5041081;28;20106;-78
2023/06/30 00:09:40;;;;;;;7.15;4.47;;;;;;;;;;5026198;28;20031;-81
2023/06/30 00:12:07;;;;;;;6.10;3.50;;;;;;;;;;5017356;28;20026;-79
2023/06/30 00:14:33;;;;;;;5.32;2.88;;;;;;;;;;5023598;28;20033;-79
2023/06/30 00:16:59;;;;;;;5.60;3.13;;;;;;;;;;5047200;28;20040;-80
2023/06/30 00:19:25;;;;;;;8.95;3.88;;;;;;;;;;5029880;28;20030;-79
2023/06/30 00:21:52;;;;;;;5.82;2.90;;;;;;;;;;5021042;28;20113;-78
2023/06/30 00:24:21;;;;;;;6.70;3.53;;;;;;;;;;4998222;28;20079;-79
2023/06/30 00:26:47;;;;;;;4.50;2.75;;;;;;;;;;5016346;28;20036;-80
2023/06/30 00:29:13;;;;;;;5.63;3.13;;;;;;;;;;5030428;28;20018;-78
2023/06/30 00:31:39;;;;;;;4.65;2.90;;;;;;;;;;5033840;28;20025;-78
2023/06/30 00:34:05;;;;;;;4.97;2.70;;;;;;;;;;5023954;28;20161;-78
2023/06/30 00:36:31;;;;;;;4.25;2.72;;;;;;;;;;5031151;28;20030;-78
2023/06/30 00:38:58;;;;;;;3.78;2.80;;;;;;;;;;5042432;28;20025;-78
2023/06/30 00:41:24;;;;;;;10.05;3.13;;;;;;;;;;5034348;28;20017;-79
2023/06/30 00:43:50;;;;;;;5.63;2.45;;;;;;;;;;5033165;28;20045;-79
2023/06/30 00:46:17;;;;;;;5.70;2.80;;;;;;;;;;5027026;28;20029;-78
2023/06/30 00:48:43;;;;;;;3.88;2.85;;;;;;;;;;5034651;28;20026;-78
2023/06/30 00:51:09;;;;;;;7.13;3.33;;;;;;;;;;5029572;28;20040;-79
2023/06/30 00:53:36;;;;;;;5.25;3.40;;;;;;;;;;5000827;28;20079;-79
2023/06/30 00:56:02;;;;;;;5.35;3.80;;;;;;;;;;5022456;28;20041;-82
2023/06/30 00:58:28;;;;;;;5.20;3.70;;;;;;;;;;5013781;28;20052;-79
2023/06/30 01:00:58;;;;;;;5.45;3.13;;;;;;;;;;5030109;28;20498;-80
2023/06/30 01:03:27;;;;;;;5.75;3.40;;;;;;;;;;5026905;28;20472;-78
2023/06/30 01:06:03;;;;;;;4.25;3.13;;;;;;;;;;5023085;28;20025;-78
2023/06/30 01:08:41;;;;;;;4.18;2.67;;;;;;;;;;5032001;28;20022;-79
2023/06/30 01:11:07;;;;;;;5.55;2.60;;;;;;;;;;5016300;28;20072;-78
2023/06/30 01:13:33;;;;;;;4.55;2.85;;;;;;;;;;5025406;28;20026;-78
2023/06/30 01:16:00;;;;;;;4.22;3.03;;;;;;;;;;5011945;28;20037;-79
2023/06/30 01:18:26;;;;;;;4.25;2.38;;;;;;;;;;5029093;28;20029;-78
2023/06/30 01:20:53;;;;;;;3.17;2.80;;;;;;;;;;5038697;28;20024;-78
2023/06/30 01:23:27;;;;;;;3.22;2.38;;;;;;;;;;5019895;28;20037;-78
2023/06/30 01:25:54;;;;;;;2.97;2.28;;;;;;;;;;5023282;28;20061;-79
2023/06/30 01:28:20;;;;;;;5.32;3.20;;;;;;;;;;5014480;28;20030;-78
2023/06/30 01:30:46;;;;;;;3.35;2.40;;;;;;;;;;5012408;28;20391;-79
2023/06/30 01:33:14;;;;;;;3.65;2.78;;;;;;;;;;5032687;28;20499;-78
2023/06/30 01:35:40;;;;;;;3.85;2.88;;;;;;;;;;5032763;28;20439;-78
2023/06/30 01:38:06;;;;;;;5.03;3.13;;;;;;;;;;5026636;28;20035;-78
2023/06/30 01:40:32;;;;;;;4.63;2.92;;;;;;;;;;5036007;28;20373;-79
2023/06/30 01:42:58;;;;;;;7.28;2.90;;;;;;;;;;5031041;28;20492;-79
2023/06/30 01:45:25;;;;;;;5.88;3.17;;;;;;;;;;5024986;28;20105;-78
2023/06/30 01:47:51;;;;;;;5.50;3.00;;;;;;;;;;5030935;28;20030;-79
2023/06/30 01:50:17;;;;;;;5.38;2.90;;;;;;;;;;5016160;28;20017;-78
2023/06/30 01:52:44;;;;;;;5.75;3.25;;;;;;;;;;5024134;28;20018;-77
2023/06/30 01:55:10;;;;;;;4.90;3.05;;;;;;;;;;5012023;28;20032;-77
2023/06/30 01:57:36;;;;;;;5.38;3.10;;;;;;;;;;5012941;28;20148;-78
2023/06/30 02:00:03;;;;;;;5.15;3.30;;;;;;;;;;5032875;28;20453;-78
2023/06/30 02:02:29;;;;;;;4.22;3.10;;;;;;;;;;5034464;28;20022;-76
2023/06/30 02:04:55;;;;;;;7.63;3.25;;;;;;;;;;5019116;28;20022;-77
2023/06/30 02:07:21;;;;;;;5.10;3.35;;;;;;;;;;5024043;28;20030;-76
2023/06/30 02:09:47;;;;;;;4.57;3.15;;;;;;;;;;4999811;28;20034;-76
2023/06/30 02:12:13;;;;;;;4.47;3.50;;;;;;;;;;5030837;28;20021;-76
2023/06/30 02:14:39;;;;;;;7.03;3.50;;;;;;;;;;5017128;28;20026;-77
2023/06/30 02:17:05;;;;;;;5.18;3.00;;;;;;;;;;5028847;28;20044;-77
2023/06/30 02:19:31;;;;;;;6.30;3.50;;;;;;;;;;5019106;28;20483;-77
2023/06/30 02:21:57;;;;;;;5.82;3.53;;;;;;;;;;5040519;28;20106;-77
2023/06/30 02:24:23;;;;;;;5.93;3.20;;;;;;;;;;5029122;28;20505;-77
2023/06/30 02:26:49;;;;;;;5.30;3.60;;;;;;;;;;5017900;28;20021;-77
2023/06/30 02:29:15;;;;;;;5.65;3.28;;;;;;;;;;5032765;28;20041;-77
2023/06/30 02:31:41;;;;;;;5.43;3.50;;;;;;;;;;5030692;28;20085;-78
2023/06/30 02:34:07;;;;;;;6.55;3.50;;;;;;;;;;5021067;28;20041;-78
2023/06/30 02:36:33;;;;;;;4.57;3.65;;;;;;;;;;5017984;28;20025;-79
2023/06/30 02:38:59;;;;;;;5.18;3.45;;;;;;;;;;5021508;28;20084;-79
2023/06/30 02:41:25;;;;;;;6.20;3.60;;;;;;;;;;5038298;28;20025;-79
2023/06/30 02:43:51;;;;;;;4.68;3.33;;;;;;;;;;5031572;28;20089;-79
2023/06/30 02:46:17;;;;;;;4.72;3.70;;;;;;;;;;5037302;28;20029;-80
2023/06/30 02:48:43;;;;;;;8.48;3.70;;;;;;;;;;5026130;28;20507;-78
2023/06/30 02:51:09;;;;;;;6.00;3.67;;;;;;;;;;5024485;28;20116;-78
2023/06/30 02:53:35;;;;;;;5.60;3.20;;;;;;;;;;5021092;28;20026;-79
2023/06/30 02:56:01;;;;;;;6.07;3.70;;;;;;;;;;5031700;28;20731;-78
2023/06/30 02:58:27;;;;;;;7.07;3.40;;;;;;;;;;5051878;28;20112;-79
2023/06/30 03:00:56;;;;;;;5.65;3.63;;;;;;;;;;5026455;28;20043;-79
2023/06/30 03:03:22;;;;;;;10.95;7.43;;;;;;;;;;5046493;28;20017;-80
2023/06/30 03:05:48;;;;;;;24.88;20.35;;;;;;;;;;5059185;28;20016;-80
2023/06/30 03:08:14;;;;;;;185.15;135.73;;;;;;;;;;5048099;28;20037;-80
2023/06/30 03:10:40;;;;;;;24.75;13.73;;;;;;;;;;5045267;28;20039;-78
2023/06/30 03:13:06;;;;;;;14.27;7.55;;;;;;;;;;5044861;28;20108;-78
2023/06/30 03:15:32;;;;;;;7.85;4.00;;;;;;;;;;5039478;28;20106;-78
2023/06/30 03:17:58;;;;;;;9.13;4.15;;;;;;;;;;5031612;28;20026;-78
2023/06/30 03:20:24;;;;;;;4.88;3.25;;;;;;;;;;5007319;28;20460;-78
2023/06/30 03:22:53;;;;;;;16.55;12.30;;;;;;;;;;5034941;28;20022;-78
2023/06/30 03:25:21;;;;;;;25.33;16.65;;;;;;;;;;5008223;28;20471;-78
2023/06/30 03:27:47;;;;;;;23.13;15.82;;;;;;;;;;5022136;28;20563;-78
2023/06/30 03:30:13;;;;;;;14.13;6.88;;;;;;;;;;5017807;28;20061;-77
2023/06/30 03:32:39;;;;;;;9.05;5.07;;;;;;;;;;5013163;28;20022;-77
2023/06/30 03:35:05;;;;;;;6.55;3.45;;;;;;;;;;5027745;28;20444;-77
2023/06/30 03:37:31;;;;;;;6.15;3.55;;;;;;;;;;5015974;28;20033;-77
2023/06/30 03:39:57;;;;;;;4.63;3.05;;;;;;;;;;5004682;28;20022;-77
2023/06/30 03:42:23;;;;;;;5.28;3.17;;;;;;;;;;5022607;28;20079;-77
2023/06/30 03:44:49;;;;;;;4.95;3.28;;;;;;;;;;5025750;28;20510;-78
2023/06/30 03:47:15;;;;;;;4.45;3.05;;;;;;;;;;5034690;28;20033;-78
2023/06/30 03:49:41;;;;;;;6.38;2.92;;;;;;;;;;5017452;28;20029;-77
2023/06/30 03:52:07;;;;;;;10.00;4.43;;;;;;;;;;5011185;28;20021;-77
2023/06/30 03:54:33;;;;;;;3.97;2.85;;;;;;;;;;5023227;28;20057;-77
2023/06/30 03:57:00;;;;;;;4.45;3.00;;;;;;;;;;5032518;28;20079;-77
2023/06/30 03:59:26;;;;;;;5.57;3.35;;;;;;;;;;5035015;28;20355;-78
2023/06/30 04:01:52;;;;;;;4.63;2.83;;;;;;;;;;4999848;28;20041;-77
2023/06/30 04:04:18;;;;;;;5.82;2.85;;;;;;;;;;5034826;28;20079;-78
2023/06/30 04:06:44;;;;;;;4.07;3.03;;;;;;;;;;5047192;28;20026;-78
2023/06/30 04:09:10;;;;;;;7.05;3.35;;;;;;;;;;5048227;28;20021;-78
2023/06/30 04:11:36;;;;;;;7.00;3.42;;;;;;;;;;5024051;28;20030;-78
2023/06/30 04:14:02;;;;;;;6.40;3.03;;;;;;;;;;5039091;28;20032;-78
2023/06/30 04:16:28;;;;;;;6.60;3.17;;;;;;;;;;5012423;28;20033;-78
2023/06/30 04:18:55;;;;;;;5.93;3.33;;;;;;;;;;5013744;28;20026;-79
2023/06/30 04:21:21;;;;;;;5.38;3.15;;;;;;;;;;5014521;28;20045;-79
2023/06/30 04:23:47;;;;;;;5.10;3.25;;;;;;;;;;5014592;28;20603;-78
2023/06/30 04:26:16;;;;;;;3.65;2.85;;;;;;;;;;5016266;28;20121;-79
2023/06/30 04:28:43;;;;;;;4.95;3.30;;;;;;;;;;5013899;28;20014;-78
2023/06/30 04:31:09;;;;;;;6.43;3.03;;;;;;;;;;5034258;28;20040;-78
2023/06/30 04:33:35;;;;;;;4.70;3.03;;;;;;;;;;5034990;28;20026;-79
2023/06/30 04:36:01;;;;;;;6.70;3.50;;;;;;;;;;5012754;28;20033;-79
2023/06/30 04:38:27;;;;;;;3.55;2.92;;;;;;;;;;5029391;28;20022;-78
2023/06/30 04:40:54;;;;;;;8.50;3.30;;;;;;;;;;5045867;28;20033;-78
2023/06/30 04:43:20;;;;;;;6.30;3.05;;;;;;;;;;5051726;28;20500;-79
2023/06/30 04:45:46;;;;;;;4.20;2.88;;;;;;;;;;5035629;28;20030;-78
2023/06/30 04:48:13;;;;;;;5.40;3.78;;;;;;;;;;5015038;28;20048;-79
2023/06/30 04:50:39;;;;;;;6.32;4.05;;;;;;;;;;5040894;28;20022;-78
2023/06/30 04:53:05;;;;;;;6.65;3.63;;;;;;;;;;5028505;28;20017;-78
2023/06/30 04:55:31;;;;;;;4.72;3.78;;;;;;;;;;5039058;28;20029;-79
2023/06/30 04:57:58;;;;;;;8.18;4.10;;;;;;;;;;5058903;28;20080;-78
2023/06/30 05:00:26;;;;;;;6.60;3.70;;;;;;;;;;5019201;28;20018;-79
2023/06/30 05:02:52;;;;;;;5.88;3.75;;;;;;;;;;5042209;28;20025;-78
2023/06/30 05:05:18;;;;;;;9.15;3.88;;;;;;;;;;5024094;28;20384;-77
2023/06/30 05:07:46;;;;;;;5.45;3.78;;;;;;;;;;5037884;28;20026;-78
2023/06/30 05:10:12;;;;;;;6.60;3.53;;;;;;;;;;5015706;28;20041;-77
2023/06/30 05:12:38;;;;;;;7.72;3.50;;;;;;;;;;5015044;28;20100;-77
2023/06/30 05:15:05;;;;;;;5.25;3.80;;;;;;;;;;5017495;28;20034;-77
2023/06/30 05:17:31;;;;;;;7.55;3.80;;;;;;;;;;5029485;28;20064;-76
2023/06/30 05:19:57;;;;;;;5.18;3.65;;;;;;;;;;5033818;28;20056;-77
2023/06/30 05:22:23;;;;;;;7.07;3.60;;;;;;;;;;5016357;28;20025;-76
2023/06/30 05:24:49;;;;;;;6.20;3.90;;;;;;;;;;5036108;28;20415;-77
2023/06/30 05:27:15;;;;;;;8.20;4.57;;;;;;;;;;5014861;28;20112;-77
2023/06/30 05:29:41;;;;;;;6.32;4.05;;;;;;;;;;5028060;28;20560;-77
2023/06/30 05:32:08;;;;;;;7.00;4.30;;;;;;;;;;5018496;28;20120;-77
2023/06/30 05:34:34;;;;;;;9.13;4.60;;;;;;;;;;5044486;28;20105;-77
2023/06/30 05:37:00;;;;;;;6.68;3.75;;;;;;;;;;5053256;28;20029;-77
2023/06/30 05:39:26;;;;;;;6.60;4.30;;;;;;;;;;5035704;28;20032;-76
2023/06/30 05:41:52;;;;;;;6.88;4.60;;;;;;;;;;5056703;28;20110;-77
2023/06/30 05:44:18;;;;;;;5.10;4.05;;;;;;;;;;5048082;28;20016;-77
2023/06/30 05:46:44;;;;;;;7.38;4.53;;;;;;;;;;5046037;28;20033;-79
2023/06/30 05:49:10;;;;;;;8.15;4.38;;;;;;;;;;5052476;28;20501;-78
2023/06/30 05:51:36;;;;;;;6.18;4.30;;;;;;;;;;5035467;28;20075;-77
2023/06/30 05:54:03;;;;;;;6.30;4.40;;;;;;;;;;5051778;28;20525;-77
2023/06/30 05:56:29;;;;;;;5.53;4.32;;;;;;;;;;5051861;28;20029;-77
2023/06/30 05:58:55;;;;;;;6.25;4.30;;;;;;;;;;5050943;28;20090;-77
2023/06/30 06:01:21;;;;;;;6.38;4.38;;;;;;;;;;5051570;28;20032;-77
2023/06/30 06:03:48;;;;;;;8.40;4.88;;;;;;;;;;5052653;28;20029;-77
2023/06/30 06:06:14;;;;;;;8.05;4.80;;;;;;;;;;5053212;28;20032;-77
2023/06/30 06:08:40;;;;;;;10.70;4.68;;;;;;;;;;5052890;28;20021;-78
2023/06/30 06:11:06;;;;;;;16.95;5.57;;;;;;;;;;5054165;28;20496;-78
2023/06/30 06:13:33;;;;;;;6.57;4.40;;;;;;;;;;5049839;28;20033;-77
2023/06/30 06:15:59;;;;;;;9.77;4.88;;;;;;;;;;5039099;28;20037;-77
2023/06/30 06:18:25;;;;;;;6.63;4.22;;;;;;;;;;5039519;28;20021;-76
2023/06/30 06:20:51;;;;;;;7.05;4.47;;;;;;;;;;5038036;28;20549;-76
2023/06/30 06:23:17;;;;;;;5.70;4.78;;;;;;;;;;5031314;28;20018;-77
2023/06/30 06:25:44;;;;;;;6.38;4.88;;;;;;;;;;5031188;28;20040;-77
2023/06/30 06:28:10;;;;;;;9.20;4.38;;;;;;;;;;5030544;28;20096;-77
2023/06/30 06:30:36;;;;;;;9.93;4.35;;;;;;;;;;5026892;28;20129;-77
2023/06/30 06:33:02;;;;;;;5.80;4.15;;;;;;;;;;5031281;28;20021;-77
2023/06/30 06:35:28;;;;;;;6.22;4.03;;;;;;;;;;5013053;28;20037;-77
2023/06/30 06:37:54;;;;;;;7.80;4.22;;;;;;;;;;5030565;28;20507;-77
2023/06/30 06:40:20;;;;;;;7.63;3.67;;;;;;;;;;5031352;28;20045;-77
2023/06/30 06:42:46;;;;;;;7.10;4.32;;;;;;;;;;5030517;28;20062;-76
2023/06/30 06:45:12;;;;;;;5.32;4.00;;;;;;;;;;5030614;28;20075;-78
2023/06/30 06:47:57;;;;;;;6.18;3.88;;;;;;;;;;5011943;28;20031;-78
2023/06/30 06:50:23;;;;;;;9.32;4.00;;;;;;;;;;5031178;28;20021;-77
2023/06/30 06:52:49;;;;;;;10.85;4.13;;;;;;;;;;5031029;28;20025;-77
2023/06/30 06:55:15;;;;;;;8.55;4.30;;;;;;;;;;5031552;28;20026;-77
2023/06/30 06:57:41;;;;;;;7.65;3.97;;;;;;;;;;5029345;28;20029;-75
2023/06/30 07:00:08;;;;;;;8.05;4.28;;;;;;;;;;5028798;28;20059;-76
2023/06/30 07:02:34;;;;;;;8.50;4.07;;;;;;;;;;5027220;28;20057;-76
2023/06/30 07:05:00;;;;;;;8.00;3.67;;;;;;;;;;5028811;28;20028;-76
2023/06/30 07:07:26;;;;;;;8.05;4.45;;;;;;;;;;5026843;28;20018;-76
2023/06/30 07:09:52;;;;;;;6.18;3.38;;;;;;;;;;5025998;28;20026;-76
2023/06/30 07:12:18;;;;;;;8.13;4.10;;;;;;;;;;5024435;28;20496;-76
2023/06/30 07:14:44;;;;;;;7.60;4.20;;;;;;;;;;5006090;28;20038;-76
2023/06/30 07:17:10;;;;;;;8.73;4.72;;;;;;;;;;5008121;28;20030;-76
2023/06/30 07:19:36;;;;;;;6.95;4.53;;;;;;;;;;5008436;28;20033;-76
2023/06/30 07:22:02;;;;;;;5.70;4.68;;;;;;;;;;5009692;28;20026;-76
2023/06/30 07:24:28;;;;;;;6.03;4.30;;;;;;;;;;5010663;28;20048;-76
2023/06/30 07:26:54;;;;;;;5.95;4.32;;;;;;;;;;5010683;28;20033;-76
2023/06/30 07:29:20;;;;;;;6.15;4.28;;;;;;;;;;4992478;28;20032;-76
2023/06/30 07:31:46;;;;;;;5.50;4.10;;;;;;;;;;5010847;28;20026;-77
2023/06/30 07:34:12;;;;;;;7.15;4.38;;;;;;;;;;5010525;28;20399;-76
2023/06/30 07:36:38;;;;;;;7.75;5.25;;;;;;;;;;5010538;28;20491;-77
2023/06/30 07:39:04;;;;;;;7.45;5.07;;;;;;;;;;5010035;28;20073;-76
2023/06/30 07:41:34;;;;;;;6.25;4.38;;;;;;;;;;5010290;28;20045;-76
2023/06/30 07:44:01;;;;;;;6.57;4.68;;;;;;;;;;5001187;28;20100;-76
2023/06/30 07:46:27;;;;;;;6.60;4.38;;;;;;;;;;5030280;28;20021;-76
2023/06/30 07:48:53;;;;;;;10.35;5.30;;;;;;;;;;5011724;28;20044;-76
2023/06/30 07:51:19;;;;;;;7.03;4.68;;;;;;;;;;5015765;28;20383;-77
2023/06/30 07:53:45;;;;;;;11.27;4.78;;;;;;;;;;5011161;28;20033;-77
2023/06/30 07:56:11;;;;;;;6.35;4.70;;;;;;;;;;4993874;28;20021;-76
2023/06/30 07:58:37;;;;;;;8.00;5.30;;;;;;;;;;5010491;28;20096;-76
2023/06/30 08:01:03;;;;;;;7.00;5.07;;;;;;;;;;5010778;28;20034;-76
2023/06/30 08:03:30;;;;;;;6.80;4.93;;;;;;;;;;5010051;28;20041;-76
2023/06/30 08:05:56;;;;;;;6.45;4.88;;;;;;;;;;5009467;28;20081;-76
2023/06/30 08:08:23;;;;;;;10.98;5.10;;;;;;;;;;5009645;28;20072;-76
2023/06/30 08:10:49;;;;;;;6.20;4.80;;;;;;;;;;5013548;28;20400;-76
2023/06/30 08:13:15;;;;;;;12.45;4.68;;;;;;;;;;5014974;28;20022;-76
2023/06/30 08:15:42;;;;;;;6.78;5.00;;;;;;;;;;5037552;22;20128;-72
2023/06/30 08:18:08;;;;;;;7.60;4.70;;;;;;;;;;4989994;28;20042;-72
2023/06/30 08:20:34;;;;;;;10.00;5.53;;;;;;;;;;4973150;28;20023;-72
2023/06/30 08:23:00;;;;;;;7.97;4.47;;;;;;;;;;4990766;28;20046;-72
2023/06/30 08:25:27;;;;;;;10.50;5.82;;;;;;;;;;4990904;28;20096;-71
2023/06/30 08:27:53;;;;;;;6.35;5.18;;;;;;;;;;4972470;28;20080;-72
2023/06/30 08:30:19;;;;;;;7.20;5.68;;;;;;;;;;4992526;28;20057;-72
2023/06/30 08:32:45;;;;;;;10.88;6.40;;;;;;;;;;4994123;28;20026;-72
2023/06/30 08:35:11;;;;;;;9.95;5.97;;;;;;;;;;4994303;28;20076;-73
2023/06/30 08:37:38;;;;;;;10.13;5.97;;;;;;;;;;4993915;28;20468;-73
2023/06/30 08:40:04;;;;;;;14.90;6.60;;;;;;;;;;4994034;28;20054;-73
2023/06/30 08:42:31;;;;;;;9.40;5.53;;;;;;;;;;4993741;28;20049;-73
2023/06/30 08:44:58;;;;;;;6.88;4.93;;;;;;;;;;4993704;28;20018;-72
2023/06/30 08:47:25;;;;;;;11.77;5.57;;;;;;;;;;4975358;28;20121;-72
2023/06/30 08:49:52;;;;;;;9.88;5.28;;;;;;;;;;4976780;28;20452;-73
2023/06/30 08:52:19;;;;;;;8.63;5.32;;;;;;;;;;4993751;28;20026;-73
2023/06/30 08:54:45;;;;;;;8.02;5.68;;;;;;;;;;4993742;28;20030;-73
2023/06/30 08:57:15;;;;;;;10.18;5.45;;;;;;;;;;4993205;28;20117;-73
2023/06/30 08:59:42;;;;;;;9.50;5.50;;;;;;;;;;4994524;28;20022;-74
2023/06/30 09:02:08;;;;;;;9.02;6.28;;;;;;;;;;4994023;28;20023;-73
2023/06/30 09:04:36;;;;;;;6.75;5.10;;;;;;;;;;4977080;28;20401;-74
2023/06/30 09:07:05;;;;;;;7.85;5.57;;;;;;;;;;4993496;28;20373;-73
2023/06/30 09:09:39;;;;;;;11.68;6.40;;;;;;;;;;4993336;28;20022;-73
2023/06/30 09:12:06;;;;;;;8.90;6.05;;;;;;;;;;4993633;28;20033;-73
2023/06/30 09:14:33;;;;;;;10.75;6.32;;;;;;;;;;4993828;28;20038;-73
2023/06/30 09:17:02;;;;;;;11.75;6.35;;;;;;;;;;4993182;28;20045;-72
2023/06/30 09:19:29;;;;;;;9.30;6.50;;;;;;;;;;4993417;28;20085;-73
2023/06/30 09:21:57;;;;;;;13.63;6.60;;;;;;;;;;4993377;28;20022;-73
2023/06/30 09:24:23;;;;;;;12.73;6.65;;;;;;;;;;4976487;28;20446;-73
2023/06/30 09:26:52;;;;;;;10.50;6.70;;;;;;;;;;4993129;28;20489;-73
2023/06/30 09:29:22;;;;;;;11.63;6.78;;;;;;;;;;4992930;28;20081;-72
2023/06/30 09:31:51;;;;;;;8.35;6.32;;;;;;;;;;4993046;28;20101;-73
2023/06/30 09:34:19;;;;;;;12.82;6.85;;;;;;;;;;4993206;28;20022;-71
2023/06/30 09:36:49;;;;;;;9.18;6.57;;;;;;;;;;4992965;28;20105;-73
2023/06/30 09:39:15;;;;;;;10.75;7.72;;;;;;;;;;4992319;28;20149;-72
2023/06/30 09:41:45;;;;;;;7.82;5.95;;;;;;;;;;4992441;28;20078;-72
2023/06/30 09:44:11;;;;;;;12.60;7.40;;;;;;;;;;4992969;28;20026;-72
2023/06/30 09:46:45;;;;;;;11.82;7.13;;;;;;;;;;4993012;28;20031;-73
2023/06/30 09:49:22;;;;;;;9.48;5.53;;;;;;;;;;4992034;28;20027;-73
2023/06/30 09:51:48;;;;;;;10.02;6.18;;;;;;;;;;4992932;28;20053;-73
2023/06/30 09:54:18;;;;;;;7.60;5.47;;;;;;;;;;4992806;28;20473;-74
2023/06/30 09:56:45;;;;;;;6.55;4.90;;;;;;;;;;4992763;28;20153;-74
2023/06/30 09:59:12;;;;;;;8.10;5.35;;;;;;;;;;5000843;28;20022;-72
2023/06/30 10:01:38;;;;;;;7.32;4.93;;;;;;;;;;5003891;28;20488;-73
2023/06/30 10:04:04;;;;;;;11.45;5.95;;;;;;;;;;5001355;28;20029;-73
2023/06/30 10:06:30;;;;;;;9.48;5.82;;;;;;;;;;4987395;28;20015;-72
2023/06/30 10:08:58;;;;;;;10.13;5.80;;;;;;;;;;4992675;28;20049;-73
2023/06/30 10:11:24;;;;;;;7.20;5.35;;;;;;;;;;4990413;28;20037;-73
2023/06/30 10:13:55;;;;;;;7.22;4.55;;;;;;;;;;5003473;28;20126;-73
2023/06/30 10:16:22;;;;;;;7.53;4.80;;;;;;;;;;4996191;28;20492;-73
2023/06/30 10:18:49;;;;;;;9.32;5.00;;;;;;;;;;4993523;28;20030;-72
2023/06/30 10:21:15;;;;;;;8.40;5.45;;;;;;;;;;4987462;28;20030;-73
2023/06/30 10:23:43;;;;;;;7.95;5.38;;;;;;;;;;5011915;28;20022;-73
2023/06/30 10:26:10;;;;;;;6.50;5.60;;;;;;;;;;5012357;28;20034;-73
2023/06/30 10:28:36;;;;;;;7.32;5.43;;;;;;;;;;5009864;28;20157;-73
2023/06/30 10:31:02;;;;;;;7.20;5.47;;;;;;;;;;5010292;28;20049;-72
2023/06/30 10:33:28;;;;;;;10.25;6.05;;;;;;;;;;5009902;28;20076;-73
2023/06/30 10:35:55;;;;;;;10.10;5.47;;;;;;;;;;4977543;28;20031;-73
2023/06/30 10:38:21;;;;;;;10.20;5.95;;;;;;;;;;4997234;28;20022;-73
2023/06/30 10:40:47;;;;;;;15.60;6.70;;;;;;;;;;4991491;28;20026;-74
2023/06/30 10:43:13;;;;;;;10.02;6.50;;;;;;;;;;4999558;28;20023;-74
2023/06/30 10:45:59;;;;;;;11.25;6.18;;;;;;;;;;5000221;28;20026;-74
2023/06/30 10:48:27;;;;;;;11.73;6.10;;;;;;;;;;5010503;28;20033;-73
2023/06/30 10:50:54;;;;;;;9.43;5.55;;;;;;;;;;5011616;28;20018;-74
2023/06/30 10:53:20;;;;;;;9.38;5.35;;;;;;;;;;5010619;28;20373;-74
2023/06/30 10:55:47;;;;;;;10.88;6.32;;;;;;;;;;5010956;28;20026;-73
2023/06/30 10:58:22;;;;;;;7.97;6.78;;;;;;;;;;5010545;28;20026;-73
2023/06/30 11:01:04;;;;;;;9.10;6.13;;;;;;;;;;4993407;28;20025;-74
2023/06/30 11:03:49;;;;;;;11.73;6.00;;;;;;;;;;5011058;28;20018;-74
2023/06/30 11:06:21;;;;;;;8.05;5.85;;;;;;;;;;5010615;28;20018;-73
2023/06/30 11:09:00;;;;;;;8.13;5.40;;;;;;;;;;5008399;28;20026;-73
2023/06/30 11:11:30;;;;;;;8.45;6.10;;;;;;;;;;5010659;28;20030;-73
2023/06/30 11:14:08;;;;;;;7.22;5.72;;;;;;;;;;4991804;28;20076;-75
2023/06/30 11:16:53;;;;;;;10.40;5.47;;;;;;;;;;5005325;28;20042;-74
2023/06/30 11:19:25;;;;;;;9.77;5.80;;;;;;;;;;4980868;28;20429;-74
2023/06/30 11:22:10;;;;;;;7.38;4.88;;;;;;;;;;5008256;28;20022;-74
2023/06/30 11:24:36;;;;;;;8.75;5.40;;;;;;;;;;5010495;28;20022;-74
2023/06/30 11:27:04;;;;;;;7.70;5.28;;;;;;;;;;5009789;28;20024;-72
2023/06/30 11:29:30;;;;;;;6.88;4.95;;;;;;;;;;4999162;28;20154;-73
2023/06/30 11:31:56;;;;;;;6.28;5.47;;;;;;;;;;4991907;28;20147;-73
2023/06/30 11:34:22;;;;;;;9.25;5.07;;;;;;;;;;4997266;28;20029;-73
2023/06/30 11:36:48;;;;;;;9.98;6.57;;;;;;;;;;4975293;28;20113;-72
2023/06/30 11:39:14;;;;;;;7.75;5.50;;;;;;;;;;4991057;28;20031;-73
2023/06/30 11:41:40;;;;;;;6.88;5.43;;;;;;;;;;4973838;28;20030;-73
2023/06/30 11:44:06;;;;;;;9.05;5.18;;;;;;;;;;4991422;28;20109;-74
2023/06/30 11:46:36;;;;;;;11.02;6.07;;;;;;;;;;4991107;28;20030;-73
2023/06/30 11:49:02;;;;;;;8.98;5.35;;;;;;;;;;4990580;28;20119;-73
2023/06/30 11:51:29;;;;;;;7.38;5.10;;;;;;;;;;4973698;28;20514;-73
2023/06/30 11:53:56;;;;;;;6.97;5.68;;;;;;;;;;4973496;28;20052;-73
2023/06/30 11:56:22;;;;;;;7.05;5.03;;;;;;;;;;4991982;28;20166;-73
2023/06/30 11:58:51;;;;;;;11.05;5.43;;;;;;;;;;4989023;28;20026;-73
2023/06/30 12:01:19;;;;;;;7.75;5.75;;;;;;;;;;4989421;28;20041;-74
2023/06/30 12:03:45;;;;;;;7.55;5.43;;;;;;;;;;4989734;28;20018;-74
2023/06/30 12:06:18;;;;;;;7.22;4.65;;;;;;;;;;4993804;28;20053;-74
2023/06/30 12:08:45;;;;;;;7.30;4.38;;;;;;;;;;4993710;28;20026;-72
2023/06/30 12:11:11;;;;;;;11.68;4.80;;;;;;;;;;4993177;28;20108;-73
2023/06/30 12:13:41;;;;;;;8.77;5.10;;;;;;;;;;4993029;28;20088;-74
2023/06/30 12:16:08;;;;;;;10.13;5.15;;;;;;;;;;4992458;28;20034;-73
2023/06/30 12:18:37;;;;;;;6.78;5.45;;;;;;;;;;5001276;28;20022;-74
2023/06/30 12:21:10;;;;;;;5.22;4.28;;;;;;;;;;4998571;28;20168;-74
2023/06/30 12:23:40;;;;;;;6.13;5.07;;;;;;;;;;4995192;28;20022;-73
2023/06/30 12:26:06;;;;;;;8.75;5.05;;;;;;;;;;4993238;28;20030;-75
2023/06/30 12:28:32;;;;;;;8.45;5.18;;;;;;;;;;4993656;28;20554;-73
2023/06/30 12:30:58;;;;;;;10.38;5.85;;;;;;;;;;4992935;28;20109;-73
2023/06/30 12:33:24;;;;;;;7.32;4.70;;;;;;;;;;4994643;28;20026;-74
2023/06/30 12:35:50;;;;;;;6.88;4.88;;;;;;;;;;4979581;28;20037;-74
2023/06/30 12:38:18;;;;;;;8.23;5.40;;;;;;;;;;4974285;28;20512;-74
2023/06/30 12:40:44;;;;;;;6.53;5.43;;;;;;;;;;4991204;28;20070;-74
2023/06/30 12:43:10;;;;;;;9.13;5.10;;;;;;;;;;4994275;28;20075;-74
2023/06/30 12:45:36;;;;;;;8.55;5.82;;;;;;;;;;4993983;28;20028;-73
2023/06/30 12:48:02;;;;;;;10.35;5.20;;;;;;;;;;4975357;28;20490;-74
2023/06/30 12:50:28;;;;;;;6.15;4.72;;;;;;;;;;4994228;28;20068;-73
2023/06/30 12:52:56;;;;;;;8.13;5.32;;;;;;;;;;4976701;28;20027;-74
2023/06/30 12:55:22;;;;;;;8.77;4.55;;;;;;;;;;4993899;28;20029;-74
2023/06/30 12:57:49;;;;;;;6.10;4.95;;;;;;;;;;4993447;28;20030;-73
2023/06/30 13:00:15;;;;;;;6.95;5.70;;;;;;;;;;4992090;28;20040;-73
2023/06/30 13:02:41;;;;;;;7.57;5.00;;;;;;;;;;4986036;28;20034;-74
2023/06/30 13:05:08;;;;;;;6.47;4.80;;;;;;;;;;4994204;28;20023;-74
2023/06/30 13:07:37;;;;;;;9.23;4.55;;;;;;;;;;4991646;28;20654;-75
2023/06/30 13:10:04;;;;;;;6.55;4.30;;;;;;;;;;4992255;28;20054;-74
2023/06/30 13:12:30;;;;;;;9.00;5.20;;;;;;;;;;4992787;28;20092;-73
2023/06/30 13:14:59;;;;;;;8.15;4.97;;;;;;;;;;5011513;28;20113;-73
2023/06/30 13:17:25;;;;;;;8.10;5.22;;;;;;;;;;5006281;28;20076;-73
2023/06/30 13:19:51;;;;;;;7.30;4.75;;;;;;;;;;4983769;28;20030;-74
2023/06/30 13:22:17;;;;;;;7.32;4.50;;;;;;;;;;5010721;28;20026;-74
2023/06/30 13:24:43;;;;;;;5.88;4.35;;;;;;;;;;5011661;28;20384;-74
2023/06/30 13:27:11;;;;;;;10.88;4.43;;;;;;;;;;5011038;28;20026;-73
2023/06/30 13:29:44;;;;;;;8.02;4.55;;;;;;;;;;5011564;28;20026;-74
2023/06/30 13:32:11;;;;;;;7.13;6.13;;;;;;;;;;5011687;28;20033;-74
2023/06/30 13:34:37;;;;;;;11.50;6.20;;;;;;;;;;5011764;28;20396;-73
2023/06/30 13:37:03;;;;;;;10.93;7.10;;;;;;;;;;5011962;28;20034;-72
2023/06/30 13:39:29;;;;;;;8.48;7.57;;;;;;;;;;5012667;28;20034;-74
2023/06/30 13:41:55;;;;;;;9.05;7.35;;;;;;;;;;5012175;28;20543;-73
2023/06/30 13:44:21;;;;;;;12.38;8.45;;;;;;;;;;5012755;28;20092;-72
2023/06/30 13:46:47;;;;;;;14.43;10.73;;;;;;;;;;5012283;28;20045;-73
2023/06/30 13:49:13;;;;;;;19.02;11.15;;;;;;;;;;5011821;28;20385;-74
2023/06/30 13:51:39;;;;;;;21.90;12.63;;;;;;;;;;5012534;28;20036;-72
2023/06/30 13:54:05;;;;;;;24.20;13.20;;;;;;;;;;5012315;28;20080;-73
2023/06/30 13:56:31;;;;;;;19.60;12.63;;;;;;;;;;5012268;28;20029;-73
2023/06/30 13:58:57;;;;;;;17.55;13.35;;;;;;;;;;5011838;28;20030;-73
2023/06/30 14:01:23;;;;;;;18.23;13.65;;;;;;;;;;5012167;28;20116;-73
2023/06/30 14:03:50;;;;;;;19.25;12.82;;;;;;;;;;4994692;28;20048;-72
2023/06/30 14:06:16;;;;;;;19.48;14.77;;;;;;;;;;5012178;28;20365;-72
2023/06/30 14:08:42;;;;;;;22.25;14.50;;;;;;;;;;5011335;28;20018;-72
2023/06/30 14:11:09;;;;;;;16.23;14.35;;;;;;;;;;5011921;28;20022;-73
2023/06/30 14:13:35;;;;;;;20.70;16.20;;;;;;;;;;5011770;28;20117;-73
2023/06/30 14:16:01;;;;;;;20.08;11.98;;;;;;;;;;5021191;22;20046;-77
2023/06/30 14:18:27;;;;;;;17.08;12.55;;;;;;;;;;4995498;28;20121;-77
2023/06/30 14:20:53;;;;;;;15.70;13.23;;;;;;;;;;5006934;28;20049;-78
2023/06/30 14:23:19;;;;;;;16.05;12.25;;;;;;;;;;4997714;28;20078;-78
2023/06/30 14:25:45;;;;;;;16.63;13.15;;;;;;;;;;5009928;28;20080;-78
2023/06/30 14:28:12;;;;;;;15.88;12.88;;;;;;;;;;5004829;28;20014;-76
2023/06/30 14:30:38;;;;;;;15.13;12.43;;;;;;;;;;5013155;28;20030;-76
2023/06/30 14:33:04;;;;;;;15.40;13.15;;;;;;;;;;5014728;28;20026;-77
2023/06/30 14:35:30;;;;;;;17.15;13.75;;;;;;;;;;5017425;28;20077;-77
2023/06/30 14:37:56;;;;;;;17.73;13.23;;;;;;;;;;5016201;28;20041;-77